Westchester County Airport
KHPN : rendu visible

Aérodrome :











RETROUVEZ-NOUS SUR...

 
LOGIN :

S'inscrire | Disclaimer

   EN    FR    IT 

 









Légende :    VFR   VFR Marginal   IFR   IFR Intensif   IFR Très Intensif
Visi : 
Plafond : 
>= 8 km
>= 3000ft
5 à 8 km
1000 à 3000 ft
1500m à 5 km
500 à 1000 ft
800 à 1500m
200 à 500 ft
< 800m
< 200 ft
Symboles :   Orages  Brouillard  Fortes neiges  Fortes précipitations  Vent > 20 kt






- Altitude de l'aérodrome : 439 ft
- Code IATA : HPN


KHPN - Westchester County

DERNIER METAR :
  • 100656Z 24009G17KT 200V290 10SM BKN008 OVC012 12/11 A2973 RMK AO2 SLP068 T01220111 $

METARs EXPIRÉS :
  • 100556Z 24007KT 200V270 10SM BKN009 OVC013 12/11 A2973 RMK AO2 RAE16 SLP068 P0000 60014 T01170106 10122 20100 55005 $
  • 100456Z 22007KT 190V260 10SM -RA BKN008 OVC015 12/11 A2973 RMK AO2 RAB23 SLP067 P0001 T01170106 401220028 $

TAF KHPN
Valide du 10 à 06h jusqu'au 11 à 06h UTC


100532Z 1006/1106 21008KT 3SM BR OVC004 WS020/21040KT
TEMPO 1006/1008 6SM BR
FM101200 22007KT 4SM BR OVC007
FM101400 22007KT 5SM BR VCSH OVC007
FM101800 26009KT 5SM -RA BR OVC009
FM102100 29009KT 5SM -RA BR OVC009
FM110500 32008KT 4SM -RASN BR OVC009 AMD NOT SKED



MET'MAP, la Météo Aéronautique d'un coup d'oeil ! - Copyright ORBIFLY Décembre 2007 - Disclaimer

ORBIFLY MET'MAP TEAM :

Programmation & Développement : Alexandra Zaïnal
Sur une idée originale de : Baudouin d'Aumeries
Assistance à la programmation : Marc-Olivier Méhu
Soutien technique & logistique : Manuel Goepfert

Contact : metmap@orbifly.com




SOURCES & CREDITS :

   NOAA       Earth
Advisory